sensor_id;sensor_type;location;lat;lon;timestamp;P1;durP1;ratioP1;P2;durP2;ratioP2
33094;SDS011;19459;53.044;8.910;2023-06-10T00:02:15;7.43;;;4.32;;
33094;SDS011;19459;53.044;8.910;2023-06-10T00:04:41;13.80;;;4.75;;
33094;SDS011;19459;53.044;8.910;2023-06-10T00:07:08;9.63;;;4.55;;
33094;SDS011;19459;53.044;8.910;2023-06-10T00:09:37;7.70;;;4.47;;
33094;SDS011;19459;53.044;8.910;2023-06-10T00:12:04;12.55;;;4.95;;
33094;SDS011;19459;53.044;8.910;2023-06-10T00:14:31;9.52;;;5.18;;
33094;SDS011;19459;53.044;8.910;2023-06-10T00:16:58;7.30;;;3.90;;
33094;SDS011;19459;53.044;8.910;2023-06-10T00:19:24;10.93;;;4.88;;
33094;SDS011;19459;53.044;8.910;2023-06-10T00:21:55;10.15;;;4.78;;
33094;SDS011;19459;53.044;8.910;2023-06-10T00:24:22;9.02;;;4.25;;
33094;SDS011;19459;53.044;8.910;2023-06-10T00:26:48;10.57;;;5.00;;
33094;SDS011;19459;53.044;8.910;2023-06-10T00:29:14;13.98;;;4.82;;
33094;SDS011;19459;53.044;8.910;2023-06-10T00:31:40;11.02;;;4.20;;
33094;SDS011;19459;53.044;8.910;2023-06-10T00:34:07;12.18;;;4.75;;
33094;SDS011;19459;53.044;8.910;2023-06-10T00:36:33;10.88;;;4.90;;
33094;SDS011;19459;53.044;8.910;2023-06-10T00:38:58;15.13;;;5.00;;
33094;SDS011;19459;53.044;8.910;2023-06-10T00:41:24;15.88;;;5.97;;
33094;SDS011;19459;53.044;8.910;2023-06-10T00:43:53;11.18;;;5.13;;
33094;SDS011;19459;53.044;8.910;2023-06-10T00:46:19;12.25;;;4.60;;
33094;SDS011;19459;53.044;8.910;2023-06-10T00:48:46;10.80;;;5.20;;
33094;SDS011;19459;53.044;8.910;2023-06-10T00:51:12;12.00;;;4.93;;
33094;SDS011;19459;53.044;8.910;2023-06-10T00:53:39;11.68;;;5.07;;
33094;SDS011;19459;53.044;8.910;2023-06-10T00:56:06;16.52;;;5.80;;
33094;SDS011;19459;53.044;8.910;2023-06-10T00:58:32;9.65;;;4.75;;
33094;SDS011;19459;53.044;8.910;2023-06-10T01:00:59;21.60;;;5.28;;
33094;SDS011;19459;53.044;8.910;2023-06-10T01:03:25;11.73;;;5.60;;
33094;SDS011;19459;53.044;8.910;2023-06-10T01:05:53;17.17;;;5.50;;
33094;SDS011;19459;53.044;8.910;2023-06-10T01:08:35;10.68;;;5.15;;
33094;SDS011;19459;53.044;8.910;2023-06-10T01:11:07;12.05;;;5.68;;
33094;SDS011;19459;53.044;8.910;2023-06-10T01:13:41;12.75;;;4.65;;
33094;SDS011;19459;53.044;8.910;2023-06-10T01:16:08;14.80;;;5.45;;
33094;SDS011;19459;53.044;8.910;2023-06-10T01:18:35;11.82;;;4.85;;
33094;SDS011;19459;53.044;8.910;2023-06-10T01:21:00;10.65;;;5.40;;
33094;SDS011;19459;53.044;8.910;2023-06-10T01:23:27;12.88;;;5.22;;
33094;SDS011;19459;53.044;8.910;2023-06-10T01:26:06;12.30;;;4.90;;
33094;SDS011;19459;53.044;8.910;2023-06-10T01:33:52;12.75;;;5.35;;
33094;SDS011;19459;53.044;8.910;2023-06-10T01:36:19;12.75;;;5.00;;
33094;SDS011;19459;53.044;8.910;2023-06-10T01:38:47;17.00;;;5.57;;
33094;SDS011;19459;53.044;8.910;2023-06-10T01:41:18;9.10;;;5.32;;
33094;SDS011;19459;53.044;8.910;2023-06-10T01:43:46;11.32;;;5.13;;
33094;SDS011;19459;53.044;8.910;2023-06-10T01:46:13;9.52;;;4.80;;
33094;SDS011;19459;53.044;8.910;2023-06-10T01:48:43;12.32;;;4.82;;
33094;SDS011;19459;53.044;8.910;2023-06-10T01:51:09;14.13;;;5.68;;
33094;SDS011;19459;53.044;8.910;2023-06-10T01:53:35;10.02;;;5.32;;
33094;SDS011;19459;53.044;8.910;2023-06-10T01:56:01;10.38;;;4.88;;
33094;SDS011;19459;53.044;8.910;2023-06-10T01:58:26;18.42;;;5.28;;
33094;SDS011;19459;53.044;8.910;2023-06-10T02:00:52;16.45;;;6.05;;
33094;SDS011;19459;53.044;8.910;2023-06-10T02:03:18;10.35;;;5.40;;
33094;SDS011;19459;53.044;8.910;2023-06-10T02:05:44;15.65;;;5.38;;
33094;SDS011;19459;53.044;8.910;2023-06-10T02:08:10;11.45;;;5.10;;
33094;SDS011;19459;53.044;8.910;2023-06-10T02:10:35;12.18;;;6.35;;
33094;SDS011;19459;53.044;8.910;2023-06-10T02:13:01;9.63;;;5.80;;
33094;SDS011;19459;53.044;8.910;2023-06-10T02:15:27;10.70;;;5.65;;
33094;SDS011;19459;53.044;8.910;2023-06-10T02:17:53;11.65;;;5.32;;
33094;SDS011;19459;53.044;8.910;2023-06-10T02:20:19;10.70;;;5.50;;
33094;SDS011;19459;53.044;8.910;2023-06-10T02:22:46;14.05;;;5.93;;
33094;SDS011;19459;53.044;8.910;2023-06-10T02:25:11;17.80;;;5.47;;
33094;SDS011;19459;53.044;8.910;2023-06-10T02:27:37;10.35;;;5.30;;
33094;SDS011;19459;53.044;8.910;2023-06-10T02:30:03;15.52;;;6.32;;
33094;SDS011;19459;53.044;8.910;2023-06-10T02:32:30;13.15;;;5.75;;
33094;SDS011;19459;53.044;8.910;2023-06-10T02:34:56;14.45;;;5.43;;
33094;SDS011;19459;53.044;8.910;2023-06-10T02:37:22;10.02;;;5.07;;
33094;SDS011;19459;53.044;8.910;2023-06-10T02:39:48;11.35;;;5.45;;
33094;SDS011;19459;53.044;8.910;2023-06-10T02:42:14;13.32;;;5.78;;
33094;SDS011;19459;53.044;8.910;2023-06-10T02:44:40;12.73;;;5.32;;
33094;SDS011;19459;53.044;8.910;2023-06-10T02:47:05;9.63;;;5.65;;
33094;SDS011;19459;53.044;8.910;2023-06-10T02:49:31;10.23;;;4.72;;
33094;SDS011;19459;53.044;8.910;2023-06-10T02:51:57;12.70;;;6.18;;
33094;SDS011;19459;53.044;8.910;2023-06-10T02:54:23;13.48;;;5.50;;
33094;SDS011;19459;53.044;8.910;2023-06-10T02:56:51;13.52;;;5.18;;
33094;SDS011;19459;53.044;8.910;2023-06-10T02:59:18;10.25;;;6.00;;
33094;SDS011;19459;53.044;8.910;2023-06-10T03:01:44;10.13;;;5.22;;
33094;SDS011;19459;53.044;8.910;2023-06-10T03:04:11;15.23;;;5.35;;
33094;SDS011;19459;53.044;8.910;2023-06-10T03:06:38;13.50;;;6.40;;
33094;SDS011;19459;53.044;8.910;2023-06-10T03:09:06;14.30;;;6.75;;
33094;SDS011;19459;53.044;8.910;2023-06-10T03:11:35;10.48;;;6.55;;
33094;SDS011;19459;53.044;8.910;2023-06-10T03:14:01;20.00;;;8.52;;
33094;SDS011;19459;53.044;8.910;2023-06-10T03:16:27;14.27;;;6.00;;
33094;SDS011;19459;53.044;8.910;2023-06-10T03:18:53;13.57;;;6.28;;
33094;SDS011;19459;53.044;8.910;2023-06-10T03:21:18;12.98;;;7.25;;
33094;SDS011;19459;53.044;8.910;2023-06-10T03:23:45;13.27;;;7.13;;
33094;SDS011;19459;53.044;8.910;2023-06-10T03:26:11;13.23;;;7.57;;
33094;SDS011;19459;53.044;8.910;2023-06-10T03:28:40;20.42;;;8.60;;
33094;SDS011;19459;53.044;8.910;2023-06-10T03:31:06;15.07;;;8.18;;
33094;SDS011;19459;53.044;8.910;2023-06-10T03:33:32;13.98;;;6.97;;
33094;SDS011;19459;53.044;8.910;2023-06-10T03:35:58;13.18;;;7.47;;
33094;SDS011;19459;53.044;8.910;2023-06-10T03:38:24;14.63;;;7.63;;
33094;SDS011;19459;53.044;8.910;2023-06-10T03:40:50;20.33;;;8.63;;
33094;SDS011;19459;53.044;8.910;2023-06-10T03:43:16;17.10;;;8.75;;
33094;SDS011;19459;53.044;8.910;2023-06-10T03:45:41;13.25;;;8.43;;
33094;SDS011;19459;53.044;8.910;2023-06-10T03:48:07;16.92;;;7.82;;
33094;SDS011;19459;53.044;8.910;2023-06-10T03:50:33;15.68;;;8.70;;
33094;SDS011;19459;53.044;8.910;2023-06-10T03:53:01;19.08;;;7.90;;
33094;SDS011;19459;53.044;8.910;2023-06-10T03:55:27;13.18;;;7.90;;
33094;SDS011;19459;53.044;8.910;2023-06-10T03:57:53;20.98;;;8.30;;
33094;SDS011;19459;53.044;8.910;2023-06-10T04:00:18;17.48;;;8.75;;
33094;SDS011;19459;53.044;8.910;2023-06-10T04:02:46;15.18;;;8.75;;
33094;SDS011;19459;53.044;8.910;2023-06-10T04:05:15;15.50;;;9.13;;
33094;SDS011;19459;53.044;8.910;2023-06-10T04:07:41;12.00;;;7.32;;
33094;SDS011;19459;53.044;8.910;2023-06-10T04:10:09;16.48;;;8.43;;
33094;SDS011;19459;53.044;8.910;2023-06-10T04:12:36;16.25;;;7.20;;
33094;SDS011;19459;53.044;8.910;2023-06-10T04:15:03;14.70;;;7.07;;
33094;SDS011;19459;53.044;8.910;2023-06-10T04:17:29;12.80;;;7.38;;
33094;SDS011;19459;53.044;8.910;2023-06-10T04:19:56;12.68;;;6.53;;
33094;SDS011;19459;53.044;8.910;2023-06-10T04:22:22;12.65;;;7.35;;
33094;SDS011;19459;53.044;8.910;2023-06-10T04:24:49;14.15;;;6.97;;
33094;SDS011;19459;53.044;8.910;2023-06-10T04:27:14;21.45;;;7.07;;
33094;SDS011;19459;53.044;8.910;2023-06-10T04:29:40;13.10;;;7.47;;
33094;SDS011;19459;53.044;8.910;2023-06-10T04:32:06;17.27;;;7.32;;
33094;SDS011;19459;53.044;8.910;2023-06-10T04:34:33;13.32;;;6.63;;
33094;SDS011;19459;53.044;8.910;2023-06-10T04:36:59;14.45;;;7.30;;
33094;SDS011;19459;53.044;8.910;2023-06-10T04:39:25;12.20;;;6.82;;
33094;SDS011;19459;53.044;8.910;2023-06-10T04:41:51;10.88;;;6.05;;
33094;SDS011;19459;53.044;8.910;2023-06-10T04:44:17;16.63;;;7.30;;
33094;SDS011;19459;53.044;8.910;2023-06-10T04:46:43;16.33;;;6.45;;
33094;SDS011;19459;53.044;8.910;2023-06-10T04:49:09;15.93;;;7.30;;
33094;SDS011;19459;53.044;8.910;2023-06-10T04:51:35;15.45;;;7.47;;
33094;SDS011;19459;53.044;8.910;2023-06-10T04:54:01;13.88;;;6.72;;
33094;SDS011;19459;53.044;8.910;2023-06-10T04:56:29;15.40;;;6.20;;
33094;SDS011;19459;53.044;8.910;2023-06-10T04:58:58;16.52;;;7.25;;
33094;SDS011;19459;53.044;8.910;2023-06-10T05:01:25;15.20;;;7.25;;
33094;SDS011;19459;53.044;8.910;2023-06-10T05:03:51;12.02;;;7.10;;
33094;SDS011;19459;53.044;8.910;2023-06-10T05:06:17;11.73;;;6.85;;
33094;SDS011;19459;53.044;8.910;2023-06-10T05:08:43;15.68;;;7.30;;
33094;SDS011;19459;53.044;8.910;2023-06-10T05:11:08;11.52;;;6.95;;
33094;SDS011;19459;53.044;8.910;2023-06-10T05:13:35;15.07;;;7.25;;
33094;SDS011;19459;53.044;8.910;2023-06-10T05:16:00;11.20;;;6.22;;
33094;SDS011;19459;53.044;8.910;2023-06-10T05:18:27;13.93;;;6.65;;
33094;SDS011;19459;53.044;8.910;2023-06-10T05:20:52;12.18;;;6.20;;
33094;SDS011;19459;53.044;8.910;2023-06-10T05:23:19;18.50;;;7.03;;
33094;SDS011;19459;53.044;8.910;2023-06-10T05:25:48;10.88;;;5.78;;
33094;SDS011;19459;53.044;8.910;2023-06-10T05:28:14;14.20;;;7.35;;
33094;SDS011;19459;53.044;8.910;2023-06-10T05:30:39;19.52;;;7.75;;
33094;SDS011;19459;53.044;8.910;2023-06-10T05:33:05;14.70;;;6.28;;
33094;SDS011;19459;53.044;8.910;2023-06-10T05:35:31;9.98;;;6.05;;
33094;SDS011;19459;53.044;8.910;2023-06-10T05:37:57;14.35;;;6.88;;
33094;SDS011;19459;53.044;8.910;2023-06-10T05:40:23;11.00;;;6.20;;
33094;SDS011;19459;53.044;8.910;2023-06-10T05:42:49;10.85;;;8.15;;
33094;SDS011;19459;53.044;8.910;2023-06-10T05:45:14;17.88;;;6.63;;
33094;SDS011;19459;53.044;8.910;2023-06-10T05:47:41;16.10;;;6.40;;
33094;SDS011;19459;53.044;8.910;2023-06-10T05:50:06;13.73;;;6.22;;
33094;SDS011;19459;53.044;8.910;2023-06-10T05:52:34;11.68;;;6.47;;
33094;SDS011;19459;53.044;8.910;2023-06-10T05:55:02;15.85;;;6.65;;
33094;SDS011;19459;53.044;8.910;2023-06-10T05:57:28;17.50;;;6.30;;
33094;SDS011;19459;53.044;8.910;2023-06-10T05:59:54;13.90;;;6.80;;
33094;SDS011;19459;53.044;8.910;2023-06-10T06:02:20;11.55;;;6.75;;
33094;SDS011;19459;53.044;8.910;2023-06-10T06:04:45;17.88;;;6.93;;
33094;SDS011;19459;53.044;8.910;2023-06-10T06:07:11;11.98;;;6.90;;
33094;SDS011;19459;53.044;8.910;2023-06-10T06:09:37;13.77;;;6.60;;
33094;SDS011;19459;53.044;8.910;2023-06-10T06:12:03;14.50;;;6.82;;
33094;SDS011;19459;53.044;8.910;2023-06-10T06:14:31;9.57;;;6.05;;
33094;SDS011;19459;53.044;8.910;2023-06-10T06:16:57;12.15;;;6.55;;
33094;SDS011;19459;53.044;8.910;2023-06-10T06:19:23;10.98;;;6.93;;
33094;SDS011;19459;53.044;8.910;2023-06-10T06:21:49;14.20;;;6.80;;
33094;SDS011;19459;53.044;8.910;2023-06-10T06:24:15;11.77;;;6.30;;
33094;SDS011;19459;53.044;8.910;2023-06-10T06:26:41;12.50;;;7.20;;
33094;SDS011;19459;53.044;8.910;2023-06-10T06:29:07;15.18;;;6.53;;
33094;SDS011;19459;53.044;8.910;2023-06-10T06:31:32;11.68;;;5.60;;
33094;SDS011;19459;53.044;8.910;2023-06-10T06:33:58;16.77;;;6.55;;
33094;SDS011;19459;53.044;8.910;2023-06-10T06:36:24;15.50;;;6.28;;
33094;SDS011;19459;53.044;8.910;2023-06-10T06:38:51;20.25;;;6.57;;
33094;SDS011;19459;53.044;8.910;2023-06-10T06:41:17;16.05;;;6.95;;
33094;SDS011;19459;53.044;8.910;2023-06-10T06:43:42;11.85;;;5.82;;
33094;SDS011;19459;53.044;8.910;2023-06-10T06:46:08;13.75;;;6.45;;
33094;SDS011;19459;53.044;8.910;2023-06-10T06:48:34;11.13;;;6.35;;
33094;SDS011;19459;53.044;8.910;2023-06-10T06:51:00;13.48;;;5.97;;
33094;SDS011;19459;53.044;8.910;2023-06-10T06:53:26;15.07;;;6.53;;
33094;SDS011;19459;53.044;8.910;2023-06-10T06:55:52;12.05;;;5.88;;
33094;SDS011;19459;53.044;8.910;2023-06-10T06:58:18;13.43;;;6.00;;
33094;SDS011;19459;53.044;8.910;2023-06-10T07:00:44;9.90;;;6.20;;
33094;SDS011;19459;53.044;8.910;2023-06-10T07:03:10;11.93;;;5.97;;
33094;SDS011;19459;53.044;8.910;2023-06-10T07:05:36;12.30;;;6.10;;
33094;SDS011;19459;53.044;8.910;2023-06-10T07:08:03;12.75;;;6.13;;
33094;SDS011;19459;53.044;8.910;2023-06-10T07:10:29;12.98;;;5.60;;
33094;SDS011;19459;53.044;8.910;2023-06-10T07:12:55;14.20;;;5.90;;
33094;SDS011;19459;53.044;8.910;2023-06-10T07:15:21;15.98;;;6.78;;
33094;SDS011;19459;53.044;8.910;2023-06-10T07:17:47;9.77;;;5.43;;
33094;SDS011;19459;53.044;8.910;2023-06-10T07:20:12;9.88;;;5.85;;
33094;SDS011;19459;53.044;8.910;2023-06-10T07:22:41;12.05;;;5.32;;
33094;SDS011;19459;53.044;8.910;2023-06-10T07:25:07;10.40;;;5.90;;
33094;SDS011;19459;53.044;8.910;2023-06-10T07:27:33;12.57;;;5.60;;
33094;SDS011;19459;53.044;8.910;2023-06-10T07:30:01;14.02;;;5.60;;
33094;SDS011;19459;53.044;8.910;2023-06-10T07:32:27;17.25;;;6.63;;
33094;SDS011;19459;53.044;8.910;2023-06-10T07:34:52;9.90;;;5.25;;
33094;SDS011;19459;53.044;8.910;2023-06-10T07:37:18;10.82;;;5.07;;
33094;SDS011;19459;53.044;8.910;2023-06-10T07:39:44;12.18;;;5.70;;
33094;SDS011;19459;53.044;8.910;2023-06-10T07:42:10;13.15;;;5.10;;
33094;SDS011;19459;53.044;8.910;2023-06-10T07:44:36;14.02;;;5.25;;
33094;SDS011;19459;53.044;8.910;2023-06-10T07:47:02;16.83;;;5.45;;
33094;SDS011;19459;53.044;8.910;2023-06-10T07:49:28;14.48;;;5.22;;
33094;SDS011;19459;53.044;8.910;2023-06-10T07:51:55;8.85;;;5.22;;
33094;SDS011;19459;53.044;8.910;2023-06-10T07:54:21;8.95;;;5.38;;
33094;SDS011;19459;53.044;8.910;2023-06-10T07:56:46;11.25;;;5.53;;
33094;SDS011;19459;53.044;8.910;2023-06-10T07:59:13;8.95;;;5.10;;
33094;SDS011;19459;53.044;8.910;2023-06-10T08:01:39;14.10;;;5.93;;
33094;SDS011;19459;53.044;8.910;2023-06-10T08:04:05;11.55;;;5.53;;
33094;SDS011;19459;53.044;8.910;2023-06-10T08:06:31;7.82;;;4.88;;
33094;SDS011;19459;53.044;8.910;2023-06-10T08:08:57;12.27;;;5.18;;
33094;SDS011;19459;53.044;8.910;2023-06-10T08:11:23;10.70;;;5.25;;
33094;SDS011;19459;53.044;8.910;2023-06-10T08:13:49;12.85;;;5.50;;
33094;SDS011;19459;53.044;8.910;2023-06-10T08:16:16;11.82;;;5.57;;
33094;SDS011;19459;53.044;8.910;2023-06-10T08:18:42;8.15;;;4.45;;
33094;SDS011;19459;53.044;8.910;2023-06-10T08:21:08;14.75;;;5.35;;
33094;SDS011;19459;53.044;8.910;2023-06-10T08:23:33;14.05;;;5.00;;
33094;SDS011;19459;53.044;8.910;2023-06-10T08:25:59;13.48;;;5.00;;
33094;SDS011;19459;53.044;8.910;2023-06-10T08:28:25;11.52;;;5.20;;
33094;SDS011;19459;53.044;8.910;2023-06-10T08:30:51;12.35;;;4.50;;
33094;SDS011;19459;53.044;8.910;2023-06-10T08:33:16;14.05;;;4.80;;
33094;SDS011;19459;53.044;8.910;2023-06-10T08:35:42;11.25;;;4.40;;
33094;SDS011;19459;53.044;8.910;2023-06-10T08:38:08;8.63;;;4.38;;
33094;SDS011;19459;53.044;8.910;2023-06-10T08:40:34;10.27;;;4.85;;
33094;SDS011;19459;53.044;8.910;2023-06-10T08:43:06;11.55;;;4.63;;
33094;SDS011;19459;53.044;8.910;2023-06-10T08:45:36;10.85;;;4.28;;
33094;SDS011;19459;53.044;8.910;2023-06-10T08:48:02;9.70;;;4.60;;
33094;SDS011;19459;53.044;8.910;2023-06-10T08:50:34;11.18;;;5.03;;
33094;SDS011;19459;53.044;8.910;2023-06-10T08:53:02;8.27;;;4.00;;
33094;SDS011;19459;53.044;8.910;2023-06-10T08:55:37;8.98;;;4.28;;
33094;SDS011;19459;53.044;8.910;2023-06-10T08:58:07;7.60;;;4.30;;
33094;SDS011;19459;53.044;8.910;2023-06-10T09:00:33;12.30;;;4.30;;
33094;SDS011;19459;53.044;8.910;2023-06-10T09:03:00;16.50;;;5.13;;
33094;SDS011;19459;53.044;8.910;2023-06-10T09:05:27;9.05;;;3.83;;
33094;SDS011;19459;53.044;8.910;2023-06-10T09:07:57;11.10;;;4.57;;
33094;SDS011;19459;53.044;8.910;2023-06-10T09:10:25;12.95;;;4.05;;
33094;SDS011;19459;53.044;8.910;2023-06-10T09:12:58;7.93;;;4.13;;
33094;SDS011;19459;53.044;8.910;2023-06-10T09:15:24;11.73;;;4.32;;
33094;SDS011;19459;53.044;8.910;2023-06-10T09:17:50;11.35;;;4.40;;
33094;SDS011;19459;53.044;8.910;2023-06-10T09:20:16;14.38;;;4.68;;
33094;SDS011;19459;53.044;8.910;2023-06-10T09:22:42;10.75;;;4.40;;
33094;SDS011;19459;53.044;8.910;2023-06-10T09:25:09;9.65;;;4.07;;
33094;SDS011;19459;53.044;8.910;2023-06-10T09:27:47;11.07;;;4.22;;
33094;SDS011;19459;53.044;8.910;2023-06-10T09:30:28;10.85;;;4.75;;
33094;SDS011;19459;53.044;8.910;2023-06-10T09:32:56;26.98;;;4.68;;
33094;SDS011;19459;53.044;8.910;2023-06-10T09:35:24;9.23;;;3.53;;
33094;SDS011;19459;53.044;8.910;2023-06-10T09:37:55;10.55;;;4.05;;
33094;SDS011;19459;53.044;8.910;2023-06-10T09:40:25;7.45;;;3.80;;
33094;SDS011;19459;53.044;8.910;2023-06-10T09:42:53;8.15;;;3.75;;
33094;SDS011;19459;53.044;8.910;2023-06-10T09:45:28;13.60;;;3.92;;
33094;SDS011;19459;53.044;8.910;2023-06-10T09:47:59;8.90;;;3.90;;
33094;SDS011;19459;53.044;8.910;2023-06-10T09:50:25;9.15;;;3.83;;
33094;SDS011;19459;53.044;8.910;2023-06-10T09:52:51;6.88;;;4.05;;
33094;SDS011;19459;53.044;8.910;2023-06-10T09:55:17;6.22;;;3.97;;
33094;SDS011;19459;53.044;8.910;2023-06-10T09:57:44;7.63;;;3.80;;
33094;SDS011;19459;53.044;8.910;2023-06-10T10:00:14;11.13;;;3.90;;
33094;SDS011;19459;53.044;8.910;2023-06-10T10:02:50;9.27;;;3.70;;
33094;SDS011;19459;53.044;8.910;2023-06-10T10:05:19;6.68;;;3.83;;
33094;SDS011;19459;53.044;8.910;2023-06-10T10:07:46;7.47;;;3.78;;
33094;SDS011;19459;53.044;8.910;2023-06-10T10:10:14;7.10;;;3.75;;
33094;SDS011;19459;53.044;8.910;2023-06-10T10:12:42;9.27;;;3.70;;
33094;SDS011;19459;53.044;8.910;2023-06-10T10:15:11;6.65;;;3.55;;
33094;SDS011;19459;53.044;8.910;2023-06-10T10:17:42;7.72;;;3.88;;
33094;SDS011;19459;53.044;8.910;2023-06-10T10:20:46;6.78;;;3.55;;
33094;SDS011;19459;53.044;8.910;2023-06-10T10:23:28;6.72;;;3.90;;
33094;SDS011;19459;53.044;8.910;2023-06-10T10:26:00;6.18;;;3.78;;
33094;SDS011;19459;53.044;8.910;2023-06-10T10:28:34;5.30;;;3.22;;
33094;SDS011;19459;53.044;8.910;2023-06-10T10:31:11;7.25;;;3.38;;
33094;SDS011;19459;53.044;8.910;2023-06-10T10:36:26;7.00;;;3.67;;
33094;SDS011;19459;53.044;8.910;2023-06-10T10:38:52;4.72;;;3.13;;
33094;SDS011;19459;53.044;8.910;2023-06-10T10:41:19;5.22;;;3.05;;
33094;SDS011;19459;53.044;8.910;2023-06-10T10:43:46;5.93;;;3.03;;
33094;SDS011;19459;53.044;8.910;2023-06-10T10:46:14;5.63;;;3.42;;
33094;SDS011;19459;53.044;8.910;2023-06-10T10:48:42;8.38;;;3.40;;
33094;SDS011;19459;53.044;8.910;2023-06-10T10:51:09;5.40;;;3.08;;
33094;SDS011;19459;53.044;8.910;2023-06-10T10:53:39;6.93;;;3.25;;
33094;SDS011;19459;53.044;8.910;2023-06-10T10:56:12;5.80;;;3.50;;
33094;SDS011;19459;53.044;8.910;2023-06-10T10:58:40;8.15;;;3.75;;
33094;SDS011;19459;53.044;8.910;2023-06-10T11:01:12;7.32;;;3.58;;
33094;SDS011;19459;53.044;8.910;2023-06-10T11:03:45;6.72;;;3.20;;
33094;SDS011;19459;53.044;8.910;2023-06-10T11:06:15;5.68;;;3.03;;
33094;SDS011;19459;53.044;8.910;2023-06-10T11:16:27;6.72;;;4.38;;
33094;SDS011;19459;53.044;8.910;2023-06-10T11:18:54;6.68;;;3.50;;
33094;SDS011;19459;53.044;8.910;2023-06-10T11:21:24;5.80;;;2.92;;
33094;SDS011;19459;53.044;8.910;2023-06-10T11:23:50;6.13;;;3.05;;
33094;SDS011;19459;53.044;8.910;2023-06-10T11:33:55;8.40;;;3.40;;
33094;SDS011;19459;53.044;8.910;2023-06-10T11:36:27;4.05;;;2.92;;
33094;SDS011;19459;53.044;8.910;2023-06-10T11:38:57;5.22;;;3.10;;
33094;SDS011;19459;53.044;8.910;2023-06-10T11:41:25;5.80;;;2.85;;
33094;SDS011;19459;53.044;8.910;2023-06-10T11:43:53;7.60;;;3.35;;
33094;SDS011;19459;53.044;8.910;2023-06-10T11:46:21;5.57;;;3.20;;
33094;SDS011;19459;53.044;8.910;2023-06-10T11:48:54;4.57;;;3.30;;
33094;SDS011;19459;53.044;8.910;2023-06-10T11:51:25;8.15;;;3.22;;
33094;SDS011;19459;53.044;8.910;2023-06-10T11:53:55;7.60;;;3.23;;
33094;SDS011;19459;53.044;8.910;2023-06-10T11:56:28;5.28;;;3.17;;
33094;SDS011;19459;53.044;8.910;2023-06-10T12:01:33;5.10;;;2.90;;
33094;SDS011;19459;53.044;8.910;2023-06-10T12:04:03;4.70;;;2.72;;
33094;SDS011;19459;53.044;8.910;2023-06-10T12:06:48;5.97;;;2.90;;
33094;SDS011;19459;53.044;8.910;2023-06-10T12:09:26;5.93;;;3.25;;
33094;SDS011;19459;53.044;8.910;2023-06-10T12:11:59;6.97;;;3.20;;
33094;SDS011;19459;53.044;8.910;2023-06-10T12:19:59;5.50;;;2.55;;
33094;SDS011;19459;53.044;8.910;2023-06-10T12:22:26;3.97;;;2.28;;
33094;SDS011;19459;53.044;8.910;2023-06-10T12:25:07;5.90;;;2.78;;
33094;SDS011;19459;53.044;8.910;2023-06-10T12:27:34;4.13;;;2.80;;
33094;SDS011;19459;53.044;8.910;2023-06-10T12:30:02;7.75;;;3.28;;
33094;SDS011;19459;53.044;8.910;2023-06-10T12:35:06;8.75;;;3.17;;
33094;SDS011;19459;53.044;8.910;2023-06-10T12:37:33;7.97;;;2.92;;
33094;SDS011;19459;53.044;8.910;2023-06-10T12:40:00;5.78;;;3.15;;
33094;SDS011;19459;53.044;8.910;2023-06-10T12:42:28;6.00;;;3.88;;
33094;SDS011;19459;53.044;8.910;2023-06-10T12:44:55;8.23;;;3.13;;
33094;SDS011;19459;53.044;8.910;2023-06-10T12:47:31;6.75;;;2.90;;
33094;SDS011;19459;53.044;8.910;2023-06-10T12:50:00;9.43;;;3.75;;
33094;SDS011;19459;53.044;8.910;2023-06-10T12:52:27;6.70;;;2.85;;
33094;SDS011;19459;53.044;8.910;2023-06-10T12:54:53;7.10;;;3.10;;
33094;SDS011;19459;53.044;8.910;2023-06-10T12:57:20;10.05;;;3.25;;
33094;SDS011;19459;53.044;8.910;2023-06-10T12:59:47;5.90;;;2.88;;
33094;SDS011;19459;53.044;8.910;2023-06-10T13:02:18;6.80;;;3.80;;
33094;SDS011;19459;53.044;8.910;2023-06-10T13:04:45;6.10;;;3.17;;
33094;SDS011;19459;53.044;8.910;2023-06-10T13:07:12;6.88;;;4.10;;
33094;SDS011;19459;53.044;8.910;2023-06-10T13:09:38;7.22;;;3.50;;
33094;SDS011;19459;53.044;8.910;2023-06-10T13:12:04;6.38;;;3.53;;
33094;SDS011;19459;53.044;8.910;2023-06-10T13:14:31;6.82;;;3.55;;
33094;SDS011;19459;53.044;8.910;2023-06-10T13:16:57;7.90;;;3.55;;
33094;SDS011;19459;53.044;8.910;2023-06-10T13:19:23;7.00;;;3.55;;
33094;SDS011;19459;53.044;8.910;2023-06-10T13:21:51;5.38;;;3.53;;
33094;SDS011;19459;53.044;8.910;2023-06-10T13:24:17;7.05;;;3.78;;
33094;SDS011;19459;53.044;8.910;2023-06-10T13:26:45;5.57;;;3.47;;
33094;SDS011;19459;53.044;8.910;2023-06-10T13:29:10;5.97;;;3.63;;
33094;SDS011;19459;53.044;8.910;2023-06-10T13:31:40;12.00;;;3.83;;
33094;SDS011;19459;53.044;8.910;2023-06-10T13:34:06;12.98;;;3.55;;
33094;SDS011;19459;53.044;8.910;2023-06-10T13:36:32;8.10;;;4.25;;
33094;SDS011;19459;53.044;8.910;2023-06-10T13:38:58;13.80;;;4.05;;
33094;SDS011;19459;53.044;8.910;2023-06-10T13:41:23;9.35;;;3.72;;
33094;SDS011;19459;53.044;8.910;2023-06-10T13:43:49;6.30;;;4.15;;
33094;SDS011;19459;53.044;8.910;2023-06-10T13:46:15;15.85;;;3.95;;
33094;SDS011;19459;53.044;8.910;2023-06-10T13:48:41;11.93;;;4.72;;
33094;SDS011;19459;53.044;8.910;2023-06-10T13:51:07;17.13;;;3.92;;
33094;SDS011;19459;53.044;8.910;2023-06-10T13:53:34;9.38;;;3.92;;
33094;SDS011;19459;53.044;8.910;2023-06-10T13:56:00;6.03;;;4.20;;
33094;SDS011;19459;53.044;8.910;2023-06-10T13:58:25;6.90;;;4.43;;
33094;SDS011;19459;53.044;8.910;2023-06-10T14:00:51;7.03;;;4.03;;
33094;SDS011;19459;53.044;8.910;2023-06-10T14:03:18;7.63;;;3.80;;
33094;SDS011;19459;53.044;8.910;2023-06-10T14:05:43;9.55;;;4.28;;
33094;SDS011;19459;53.044;8.910;2023-06-10T14:08:09;4.57;;;4.13;;
33094;SDS011;19459;53.044;8.910;2023-06-10T14:10:35;8.05;;;4.45;;
33094;SDS011;19459;53.044;8.910;2023-06-10T14:13:01;5.70;;;4.25;;
33094;SDS011;19459;53.044;8.910;2023-06-10T14:15:27;6.25;;;4.35;;
33094;SDS011;19459;53.044;8.910;2023-06-10T14:17:52;11.75;;;4.55;;
33094;SDS011;19459;53.044;8.910;2023-06-10T14:20:19;5.63;;;3.72;;
33094;SDS011;19459;53.044;8.910;2023-06-10T14:22:45;7.13;;;4.18;;
33094;SDS011;19459;53.044;8.910;2023-06-10T14:25:11;8.95;;;4.63;;
33094;SDS011;19459;53.044;8.910;2023-06-10T14:27:37;7.88;;;4.13;;
33094;SDS011;19459;53.044;8.910;2023-06-10T14:30:03;9.80;;;4.35;;
33094;SDS011;19459;53.044;8.910;2023-06-10T14:32:30;8.45;;;4.95;;
33094;SDS011;19459;53.044;8.910;2023-06-10T14:34:56;12.00;;;4.82;;
33094;SDS011;19459;53.044;8.910;2023-06-10T14:37:22;5.03;;;4.15;;
33094;SDS011;19459;53.044;8.910;2023-06-10T14:39:48;8.95;;;6.38;;
33094;SDS011;19459;53.044;8.910;2023-06-10T14:42:14;6.03;;;4.60;;
33094;SDS011;19459;53.044;8.910;2023-06-10T14:44:40;9.73;;;4.65;;
33094;SDS011;19459;53.044;8.910;2023-06-10T14:47:05;7.53;;;4.88;;
33094;SDS011;19459;53.044;8.910;2023-06-10T14:49:31;9.50;;;5.07;;
33094;SDS011;19459;53.044;8.910;2023-06-10T14:51:57;11.65;;;5.13;;
33094;SDS011;19459;53.044;8.910;2023-06-10T14:54:23;10.65;;;4.50;;
33094;SDS011;19459;53.044;8.910;2023-06-10T14:56:48;10.25;;;4.85;;
33094;SDS011;19459;53.044;8.910;2023-06-10T14:59:14;6.70;;;4.45;;
33094;SDS011;19459;53.044;8.910;2023-06-10T15:01:40;10.65;;;4.88;;
33094;SDS011;19459;53.044;8.910;2023-06-10T15:04:06;8.02;;;4.10;;
33094;SDS011;19459;53.044;8.910;2023-06-10T15:06:31;10.70;;;5.43;;
33094;SDS011;19459;53.044;8.910;2023-06-10T15:08:57;7.72;;;4.32;;
33094;SDS011;19459;53.044;8.910;2023-06-10T15:11:23;9.60;;;5.63;;
33094;SDS011;19459;53.044;8.910;2023-06-10T15:13:49;9.80;;;5.20;;
33094;SDS011;19459;53.044;8.910;2023-06-10T15:16:14;10.02;;;5.05;;